createdAt,value
2019-01-18T00:00:05.435Z,1.61
2019-01-18T00:02:34.087Z,1.64
2019-01-18T00:05:02.886Z,1.68
2019-01-18T00:07:31.277Z,1.67
2019-01-18T00:09:59.673Z,1.63
2019-01-18T00:12:28.059Z,1.56
2019-01-18T00:14:56.465Z,1.59
2019-01-18T00:17:25.107Z,1.64
2019-01-18T00:19:53.512Z,1.53
2019-01-18T00:22:22.187Z,1.59
2019-01-18T00:24:50.587Z,1.61
2019-01-18T00:27:18.971Z,1.71
2019-01-18T00:29:47.377Z,1.67
2019-01-18T00:32:16.110Z,1.65
2019-01-18T00:34:44.504Z,1.64
2019-01-18T00:37:13.162Z,1.63
2019-01-18T00:39:41.560Z,1.61
2019-01-18T00:42:10.012Z,1.63
2019-01-18T00:44:38.404Z,1.62
2019-01-18T00:47:06.785Z,1.61
2019-01-18T00:49:54.525Z,1.59
2019-01-18T00:52:22.914Z,1.56
2019-01-18T00:55:10.972Z,1.52
2019-01-18T00:57:39.482Z,1.57
2019-01-18T01:00:28.596Z,1.54
2019-01-18T01:03:37.149Z,1.58
2019-01-18T01:06:05.538Z,1.65
2019-01-18T01:08:33.937Z,1.74
2019-01-18T01:11:02.325Z,1.75
2019-01-18T01:13:31.023Z,1.70
2019-01-18T01:15:59.409Z,1.76
2019-01-18T01:18:27.806Z,1.78
2019-01-18T01:20:56.261Z,1.75
2019-01-18T01:23:24.657Z,1.77
2019-01-18T01:25:53.041Z,1.76
2019-01-18T01:28:21.440Z,1.78
2019-01-18T01:30:49.899Z,1.76
2019-01-18T01:33:18.296Z,1.75
2019-01-18T01:35:46.943Z,1.78
2019-01-18T01:38:15.630Z,1.74
2019-01-18T01:40:44.019Z,1.81
2019-01-18T01:43:12.415Z,1.75
2019-01-18T01:45:40.803Z,1.70
2019-01-18T01:48:09.270Z,1.72
2019-01-18T01:50:37.723Z,1.72
2019-01-18T01:53:06.517Z,1.75
2019-01-18T01:55:35.197Z,1.76
2019-01-18T02:00:39.049Z,1.81
2019-01-18T02:03:07.513Z,1.81
2019-01-18T02:05:36.200Z,1.83
2019-01-18T02:08:04.727Z,1.81
2019-01-18T02:10:33.112Z,1.77
2019-01-18T02:13:01.506Z,1.83
2019-01-18T02:15:29.888Z,1.79
2019-01-18T02:17:58.280Z,1.79
2019-01-18T02:20:26.660Z,1.78
2019-01-18T02:22:55.123Z,1.76
2019-01-18T02:25:23.581Z,1.75
2019-01-18T02:27:52.044Z,1.73
2019-01-18T02:31:00.335Z,1.71
2019-01-18T02:33:29.010Z,1.74
2019-01-18T02:35:57.392Z,1.78
2019-01-18T02:38:25.792Z,1.83
2019-01-18T02:41:13.812Z,1.84
2019-01-18T02:43:42.208Z,1.86
2019-01-18T02:46:10.587Z,1.86
2019-01-18T02:48:39.267Z,1.85
2019-01-18T02:51:07.938Z,1.93
2019-01-18T02:53:36.345Z,1.95
2019-01-18T02:56:44.893Z,1.98
2019-01-18T02:59:13.270Z,1.99
2019-01-18T03:01:41.671Z,1.98
2019-01-18T03:04:10.056Z,1.95
2019-01-18T03:06:38.508Z,2.03
2019-01-18T03:09:09.403Z,1.95
2019-01-18T03:11:38.129Z,2.05
2019-01-18T03:14:06.519Z,2.03
2019-01-18T03:16:35.196Z,2.02
2019-01-18T03:19:03.571Z,1.95
2019-01-18T03:21:31.968Z,1.79
2019-01-18T03:24:00.346Z,1.73
2019-01-18T03:26:28.752Z,1.73
2019-01-18T03:28:57.165Z,1.74
2019-01-18T03:31:25.545Z,1.66
2019-01-18T03:33:53.930Z,1.63
2019-01-18T03:36:22.635Z,1.72
2019-01-18T03:38:51.319Z,1.56
2019-01-18T03:41:19.728Z,1.53
2019-01-18T03:43:48.122Z,1.46
2019-01-18T03:46:16.523Z,1.50
2019-01-18T03:48:44.913Z,1.61
2019-01-18T03:51:13.310Z,1.67
2019-01-18T03:53:41.700Z,1.61
2019-01-18T03:56:10.101Z,1.65
2019-01-18T03:58:38.538Z,1.65
2019-01-18T04:01:06.941Z,1.62
2019-01-18T04:03:35.334Z,1.64
2019-01-18T04:06:03.811Z,1.62
2019-01-18T04:08:32.194Z,1.63
2019-01-18T04:11:01.252Z,1.70
2019-01-18T04:13:29.654Z,1.64
2019-01-18T04:15:58.331Z,1.71
2019-01-18T04:18:26.736Z,1.65
2019-01-18T04:20:55.131Z,1.69
2019-01-18T04:23:23.777Z,1.61
2019-01-18T04:25:52.182Z,1.58
2019-01-18T04:28:20.861Z,1.58
2019-01-18T04:30:49.261Z,1.58
2019-01-18T04:33:17.642Z,1.62
2019-01-18T04:35:46.048Z,1.61
2019-01-18T04:38:14.433Z,1.58
2019-01-18T04:40:43.146Z,1.56
2019-01-18T04:43:11.549Z,1.60
2019-01-18T04:45:39.941Z,1.74
2019-01-18T04:48:08.695Z,1.70
2019-01-18T04:50:37.340Z,1.69
2019-01-18T04:53:06.067Z,1.69
2019-01-18T04:55:34.459Z,1.71
2019-01-18T04:58:03.129Z,1.72
2019-01-18T05:00:32.021Z,1.72
2019-01-18T05:03:00.370Z,1.76
2019-01-18T05:05:28.834Z,1.71
2019-01-18T05:07:57.221Z,1.70
2019-01-18T05:10:27.565Z,1.65
2019-01-18T05:12:56.271Z,1.72
2019-01-18T05:15:27.356Z,1.69
2019-01-18T05:17:55.754Z,1.71
2019-01-18T05:20:24.154Z,1.69
2019-01-18T05:22:52.537Z,1.72
2019-01-18T05:25:21.232Z,1.74
2019-01-18T05:27:49.919Z,1.71
2019-01-18T05:30:21.052Z,1.77
2019-01-18T05:32:50.068Z,1.62
2019-01-18T05:35:18.840Z,1.65
2019-01-18T05:37:47.299Z,1.72
2019-01-18T05:40:20.759Z,1.75
2019-01-18T05:42:49.484Z,1.75
2019-01-18T05:45:19.728Z,1.71
2019-01-18T05:47:48.116Z,1.76
2019-01-18T05:50:19.397Z,1.74
2019-01-18T05:52:47.791Z,1.71
2019-01-18T05:55:16.257Z,1.72
2019-01-18T05:57:44.713Z,1.64
2019-01-18T06:00:17.807Z,1.62
2019-01-18T06:02:46.207Z,1.62
2019-01-18T06:05:17.519Z,1.71
2019-01-18T06:07:45.973Z,1.69
2019-01-18T06:10:14.391Z,1.61
2019-01-18T06:12:42.782Z,1.66
2019-01-18T06:15:11.543Z,1.69
2019-01-18T06:17:39.935Z,1.78
2019-01-18T06:20:14.058Z,1.70
2019-01-18T06:22:42.458Z,1.72
2019-01-18T06:25:11.030Z,1.70
2019-01-18T06:27:39.680Z,1.66
2019-01-18T06:30:11.134Z,1.69
2019-01-18T06:32:39.533Z,1.69
2019-01-18T06:35:08.511Z,1.53
2019-01-18T06:37:36.903Z,1.41
2019-01-18T06:40:08.365Z,1.20
2019-01-18T06:42:36.757Z,1.11
2019-01-18T06:45:08.778Z,1.01
2019-01-18T06:47:37.181Z,1.13
2019-01-18T06:50:11.146Z,0.96
2019-01-18T06:52:39.557Z,0.99
2019-01-18T06:55:10.302Z,1.06
2019-01-18T06:57:38.754Z,0.91
2019-01-18T07:00:25.313Z,0.84
2019-01-18T07:02:53.709Z,0.81
2019-01-18T07:05:22.116Z,0.83
2019-01-18T07:07:50.808Z,0.80
2019-01-18T07:10:21.806Z,0.86
2019-01-18T07:12:50.370Z,0.82
2019-01-18T07:15:18.890Z,0.88
2019-01-18T07:17:47.361Z,0.82
2019-01-18T07:20:17.694Z,0.86
2019-01-18T07:22:46.540Z,0.84
2019-01-18T07:25:26.614Z,0.84
2019-01-18T07:27:55.356Z,0.84
2019-01-18T07:30:32.047Z,0.77
2019-01-18T07:33:00.465Z,0.75
2019-01-18T07:35:28.920Z,0.75
2019-01-18T07:37:57.310Z,0.83
2019-01-18T07:40:26.211Z,0.78
2019-01-18T07:42:55.056Z,0.74
2019-01-18T07:45:25.996Z,0.76
2019-01-18T07:47:54.554Z,0.76
2019-01-18T07:50:22.939Z,0.72
2019-01-18T07:52:51.421Z,0.71
2019-01-18T07:55:20.523Z,0.74
2019-01-18T07:57:49.026Z,0.76
2019-01-18T08:00:20.100Z,0.69
2019-01-18T08:02:48.511Z,0.65
2019-01-18T08:05:17.243Z,0.60
2019-01-18T08:07:45.778Z,0.57
2019-01-18T08:10:16.761Z,0.58
2019-01-18T08:12:45.151Z,0.60
2019-01-18T08:15:19.212Z,0.75
2019-01-18T08:17:47.607Z,0.80
2019-01-18T08:20:18.937Z,0.85
2019-01-18T08:22:47.481Z,0.88
2019-01-18T08:25:16.311Z,0.88
2019-01-18T08:27:44.784Z,0.95
2019-01-18T08:30:24.788Z,0.79
2019-01-18T08:32:53.201Z,0.87
2019-01-18T08:35:23.073Z,0.88
2019-01-18T08:37:51.533Z,1.04
2019-01-18T08:40:22.865Z,1.00
2019-01-18T08:42:51.326Z,1.00
2019-01-18T08:45:26.014Z,1.17
2019-01-18T08:47:54.473Z,1.19
2019-01-18T08:50:23.015Z,1.30
2019-01-18T08:52:51.469Z,1.47
2019-01-18T08:55:19.947Z,1.64
2019-01-18T08:57:48.349Z,1.82
2019-01-18T09:00:19.632Z,1.71
2019-01-18T09:02:48.029Z,1.92
2019-01-18T09:05:19.363Z,1.93
2019-01-18T09:07:47.840Z,2.02
2019-01-18T09:10:18.674Z,1.84
2019-01-18T09:12:47.087Z,1.77
2019-01-18T09:15:15.620Z,1.84
2019-01-18T09:17:44.008Z,2.03
2019-01-18T09:20:17.841Z,2.13
2019-01-18T09:22:46.302Z,2.35
2019-01-18T09:25:14.995Z,2.50
2019-01-18T09:27:43.451Z,2.23
2019-01-18T09:30:17.678Z,2.18
2019-01-18T09:32:46.213Z,2.31
2019-01-18T09:35:16.951Z,2.39
2019-01-18T09:37:45.489Z,2.45
2019-01-18T09:40:17.144Z,2.33
2019-01-18T09:42:45.548Z,2.20
2019-01-18T09:45:14.733Z,2.26
2019-01-18T09:47:43.316Z,2.36
2019-01-18T09:50:14.786Z,2.35
2019-01-18T09:52:43.253Z,2.31
2019-01-18T09:55:11.924Z,2.18
2019-01-18T09:57:40.318Z,2.18
2019-01-18T10:00:17.848Z,2.41
2019-01-18T10:02:46.243Z,2.17
2019-01-18T10:05:14.701Z,2.40
2019-01-18T10:07:43.110Z,2.49
2019-01-18T10:10:15.098Z,2.35
2019-01-18T10:12:43.674Z,2.30
2019-01-18T10:15:17.931Z,2.36
2019-01-18T10:17:46.269Z,2.25
2019-01-18T10:20:17.211Z,2.60
2019-01-18T10:22:47.041Z,2.53
2019-01-18T10:25:16.988Z,2.55
2019-01-18T10:27:45.651Z,2.44
2019-01-18T10:30:17.207Z,2.57
2019-01-18T10:32:45.666Z,2.58
2019-01-18T10:35:14.338Z,2.79
2019-01-18T10:37:42.814Z,2.70
2019-01-18T10:40:15.831Z,2.72
2019-01-18T10:42:44.982Z,2.57
2019-01-18T10:45:15.107Z,2.61
2019-01-18T10:47:43.934Z,2.55
2019-01-18T10:50:21.080Z,2.66
2019-01-18T10:52:49.907Z,2.45
2019-01-18T10:55:18.331Z,2.72
2019-01-18T10:57:46.821Z,2.76
2019-01-18T11:00:23.319Z,2.67
2019-01-18T11:02:52.567Z,2.89
2019-01-18T11:05:22.195Z,2.86
2019-01-18T11:07:50.842Z,2.82
2019-01-18T11:10:19.303Z,2.71
2019-01-18T11:12:47.767Z,2.88
2019-01-18T11:15:22.313Z,3.34
2019-01-18T11:17:50.715Z,3.71
2019-01-18T11:20:22.179Z,3.48
2019-01-18T11:22:51.854Z,3.54
2019-01-18T11:25:20.257Z,3.87
2019-01-18T11:27:48.651Z,3.94
2019-01-18T11:30:17.490Z,3.82
2019-01-18T11:32:45.891Z,3.24
2019-01-18T11:35:15.333Z,3.57
2019-01-18T11:37:43.813Z,3.86
2019-01-18T11:40:15.595Z,3.56
2019-01-18T11:42:44.123Z,3.52
2019-01-18T11:45:13.538Z,3.75
2019-01-18T11:47:41.924Z,3.30
2019-01-18T11:50:18.582Z,3.35
2019-01-18T11:52:46.915Z,3.04
2019-01-18T11:55:15.305Z,3.41
2019-01-18T11:57:44.109Z,3.23
2019-01-18T12:00:18.247Z,3.54
2019-01-18T12:02:46.741Z,3.30
2019-01-18T12:05:15.259Z,3.25
2019-01-18T12:07:43.717Z,3.23
2019-01-18T12:10:18.043Z,3.44
2019-01-18T12:12:46.503Z,3.33
2019-01-18T12:15:15.340Z,3.54
2019-01-18T12:17:43.811Z,4.11
2019-01-18T12:20:18.195Z,3.95
2019-01-18T12:22:46.758Z,4.16
2019-01-18T12:25:15.294Z,3.79
2019-01-18T12:27:43.838Z,3.85
2019-01-18T12:30:20.969Z,4.19
2019-01-18T12:32:49.385Z,3.70
2019-01-18T12:35:17.781Z,3.58
2019-01-18T12:37:46.527Z,3.66
2019-01-18T12:40:15.309Z,3.43
2019-01-18T12:42:43.994Z,3.78
2019-01-18T12:45:15.040Z,3.91
2019-01-18T12:47:43.429Z,3.59
2019-01-18T12:50:17.860Z,3.57
2019-01-18T12:52:46.249Z,3.75
2019-01-18T12:55:15.005Z,3.55
2019-01-18T12:57:43.692Z,3.56
2019-01-18T13:00:29.062Z,3.24
2019-01-18T13:02:57.906Z,3.54
2019-01-18T13:05:38.622Z,3.54
2019-01-18T13:08:07.303Z,3.42
2019-01-18T13:10:36.010Z,3.42
2019-01-18T13:13:04.636Z,3.51
2019-01-18T13:15:39.125Z,3.31
2019-01-18T13:18:07.785Z,3.42
2019-01-18T13:20:36.187Z,3.42
2019-01-18T13:23:04.579Z,3.41
2019-01-18T13:25:32.984Z,3.14
2019-01-18T13:28:01.375Z,3.58
2019-01-18T13:30:29.767Z,3.28
2019-01-18T13:32:58.570Z,3.32
2019-01-18T13:35:27.701Z,3.17
2019-01-18T13:37:56.352Z,3.05
2019-01-18T13:40:24.809Z,2.94
2019-01-18T13:42:53.516Z,2.89
2019-01-18T13:45:24.449Z,2.39
2019-01-18T13:47:52.512Z,2.42
2019-01-18T13:50:21.403Z,2.63
2019-01-18T13:52:50.011Z,2.58
2019-01-18T13:55:30.079Z,2.46
2019-01-18T13:57:58.464Z,2.39
2019-01-18T14:00:26.860Z,2.59
2019-01-18T14:02:55.257Z,2.54
2019-01-18T14:05:23.644Z,2.59
2019-01-18T14:07:53.538Z,2.51
2019-01-18T14:10:24.808Z,2.40
2019-01-18T14:12:53.534Z,2.55
2019-01-18T14:15:23.713Z,2.85
2019-01-18T14:17:52.104Z,2.62
2019-01-18T14:20:22.793Z,2.39
2019-01-18T14:22:52.462Z,2.45
2019-01-18T14:25:20.916Z,2.53
2019-01-18T14:27:49.563Z,2.70
2019-01-18T14:30:28.578Z,2.57
2019-01-18T14:32:56.986Z,2.66
2019-01-18T14:35:26.846Z,2.52
2019-01-18T14:37:55.258Z,2.53
2019-01-18T14:40:23.724Z,2.43
2019-01-18T14:42:53.754Z,2.31
2019-01-18T14:45:27.883Z,2.39
2019-01-18T14:47:56.278Z,2.68
2019-01-18T14:50:25.004Z,2.89
2019-01-18T14:52:53.464Z,2.25
2019-01-18T14:55:21.932Z,2.26
2019-01-18T14:57:50.403Z,2.07
2019-01-18T15:00:24.560Z,2.10
2019-01-18T15:02:53.348Z,1.94
2019-01-18T15:05:21.742Z,1.98
2019-01-18T15:07:50.149Z,1.96
2019-01-18T15:10:20.887Z,1.94
2019-01-18T15:12:51.769Z,2.00
2019-01-18T15:15:20.771Z,2.03
2019-01-18T15:17:50.704Z,2.09
2019-01-18T15:20:21.852Z,2.15
2019-01-18T15:22:50.309Z,2.24
2019-01-18T15:25:19.060Z,2.31
2019-01-18T15:27:47.597Z,2.27
2019-01-18T15:30:24.848Z,2.31
2019-01-18T15:32:53.382Z,2.17
2019-01-18T15:35:27.874Z,2.11
2019-01-18T15:37:56.347Z,2.06
2019-01-18T15:40:27.618Z,2.07
2019-01-18T15:42:57.966Z,1.95
2019-01-18T15:45:26.613Z,1.88
2019-01-18T15:47:55.092Z,1.78
2019-01-18T15:50:25.938Z,1.72
2019-01-18T15:52:54.474Z,1.63
2019-01-18T15:55:23.518Z,1.52
2019-01-18T15:57:52.047Z,1.50
2019-01-18T16:00:23.512Z,1.41
2019-01-18T16:02:52.241Z,1.39
2019-01-18T16:05:20.641Z,1.47
2019-01-18T16:07:49.038Z,1.43
2019-01-18T16:10:17.810Z,1.41
2019-01-18T16:12:46.218Z,1.37
2019-01-18T16:15:20.360Z,1.35
2019-01-18T16:17:49.968Z,1.34
2019-01-18T16:20:20.802Z,1.28
2019-01-18T16:22:50.214Z,1.38
2019-01-18T16:25:27.222Z,1.33
2019-01-18T16:27:55.755Z,1.33
2019-01-18T16:30:25.701Z,1.23
2019-01-18T16:32:56.375Z,1.20
2019-01-18T16:35:24.842Z,1.14
2019-01-18T16:37:53.482Z,1.08
2019-01-18T16:40:35.388Z,0.99
2019-01-18T16:43:28.093Z,0.95
2019-01-18T16:45:56.657Z,0.86
2019-01-18T16:48:25.061Z,0.86
2019-01-18T16:50:53.455Z,0.76
2019-01-18T16:53:21.841Z,0.69
2019-01-18T16:55:50.249Z,0.63
2019-01-18T16:58:18.639Z,0.60
2019-01-18T17:00:56.153Z,0.56
2019-01-18T17:03:30.323Z,0.53
2019-01-18T17:05:54.683Z,0.53
2019-01-18T17:08:23.078Z,0.56
2019-01-18T17:10:51.706Z,0.56
2019-01-18T17:13:20.647Z,0.55
2019-01-18T17:15:49.042Z,0.56
2019-01-18T17:18:17.444Z,0.52
2019-01-18T17:20:47.374Z,0.51
2019-01-18T17:23:15.768Z,0.46
2019-01-18T17:25:44.179Z,0.47
2019-01-18T17:28:12.566Z,0.53
2019-01-18T17:30:41.268Z,0.52
2019-01-18T17:33:09.661Z,0.52
2019-01-18T17:35:43.759Z,0.53
2019-01-18T17:38:23.814Z,0.48
2019-01-18T17:40:55.271Z,0.46
2019-01-18T17:43:32.313Z,0.48
2019-01-18T17:46:18.871Z,0.48
2019-01-18T17:48:56.148Z,0.46
2019-01-18T17:51:36.989Z,0.42
2019-01-18T17:54:08.441Z,0.42
2019-01-18T17:56:39.894Z,0.42
2019-01-18T17:59:23.332Z,0.40
2019-01-18T18:02:14.858Z,0.37
2019-01-18T18:05:01.875Z,0.39
2019-01-18T18:07:36.318Z,0.34
2019-01-18T18:10:33.546Z,0.36
2019-01-18T18:13:16.685Z,0.35
2019-01-18T18:15:59.812Z,0.30
2019-01-18T18:18:31.272Z,0.32
2019-01-18T18:21:20.597Z,0.31
2019-01-18T18:24:04.088Z,0.31
2019-01-18T18:26:47.144Z,0.31
2019-01-18T18:29:42.601Z,0.29
2019-01-18T18:32:41.303Z,0.32
2019-01-18T18:35:28.002Z,0.36
2019-01-18T18:38:07.709Z,0.30
2019-01-18T18:40:50.997Z,0.33
2019-01-18T18:43:40.283Z,0.31
2019-01-18T18:46:11.738Z,0.26
2019-01-18T18:48:51.939Z,0.35
2019-01-18T18:51:25.991Z,0.29
2019-01-18T18:54:26.369Z,0.33
2019-01-18T18:57:12.891Z,0.33
2019-01-18T19:00:05.832Z,0.36
2019-01-18T19:02:49.170Z,0.31
2019-01-18T19:05:32.422Z,0.39
2019-01-18T19:08:12.426Z,0.38
2019-01-18T19:10:55.732Z,0.31
2019-01-18T19:14:00.641Z,0.29
2019-01-18T19:16:34.931Z,0.17
2019-01-18T19:19:06.679Z,0.09
2019-01-18T19:21:53.595Z,0.08
2019-01-18T19:24:36.978Z,0.15
2019-01-18T19:27:08.423Z,0.05
2019-01-18T19:29:55.133Z,-0.01
2019-01-18T19:32:51.415Z,-0.05
2019-01-18T19:35:40.831Z,-0.02
2019-01-18T19:38:29.297Z,-0.02
2019-01-18T19:41:21.701Z,-0.06
2019-01-18T19:43:56.159Z,0.01
2019-01-18T19:46:52.524Z,-0.01
2019-01-18T19:49:33.315Z,0.03
2019-01-18T19:52:26.557Z,0.04
2019-01-18T19:55:29.856Z,0.11
2019-01-18T19:58:08.268Z,0.03
2019-01-18T20:01:00.617Z,0.01
2019-01-18T20:03:44.356Z,0.06
2019-01-18T20:06:30.627Z,0.04
2019-01-18T20:09:13.995Z,-0.10
2019-01-18T20:11:48.364Z,-0.12
2019-01-18T20:14:34.872Z,-0.10
2019-01-18T20:17:06.334Z,-0.05
2019-01-18T20:19:57.436Z,-0.02
2019-01-18T20:22:28.897Z,0.03
2019-01-18T20:25:03.065Z,-0.09
2019-01-18T20:27:55.657Z,-0.10
2019-01-18T20:30:29.783Z,-0.15
2019-01-18T20:33:01.238Z,-0.21
2019-01-18T20:35:38.851Z,-0.32
2019-01-18T20:38:13.404Z,-0.31
2019-01-18T20:41:04.370Z,-0.29
2019-01-18T20:43:36.132Z,-0.20
2019-01-18T20:46:25.753Z,-0.13
2019-01-18T20:49:05.827Z,-0.14
2019-01-18T20:51:43.012Z,-0.08
2019-01-18T20:54:20.621Z,-0.06
2019-01-18T20:56:55.267Z,-0.06
2019-01-18T20:59:35.093Z,-0.01
2019-01-18T21:02:15.640Z,-0.08
2019-01-18T21:04:49.910Z,-0.18
2019-01-18T21:07:33.124Z,-0.16
2019-01-18T21:10:22.725Z,-0.17
2019-01-18T21:13:14.020Z,-0.18
2019-01-18T21:16:00.016Z,-0.25
2019-01-18T21:18:36.783Z,-0.20
2019-01-18T21:21:23.590Z,-0.10
2019-01-18T21:23:58.145Z,-0.12
2019-01-18T21:26:38.334Z,-0.06
2019-01-18T21:29:15.716Z,-0.12
2019-01-18T21:32:11.587Z,-0.15
2019-01-18T21:34:51.817Z,-0.04
2019-01-18T21:37:45.927Z,-0.17
2019-01-18T21:40:28.702Z,-0.25
2019-01-18T21:43:08.976Z,-0.31
2019-01-18T21:45:43.523Z,-0.38
2019-01-18T21:48:21.043Z,-0.42
2019-01-18T21:51:21.653Z,-0.48
2019-01-18T21:54:02.210Z,-0.47
2019-01-18T21:56:42.923Z,-0.53
2019-01-18T21:59:14.384Z,-0.60
2019-01-18T22:02:00.933Z,-0.59
2019-01-18T22:04:40.521Z,-0.69
2019-01-18T22:07:33.379Z,-0.70
2019-01-18T22:10:13.971Z,-0.78
2019-01-18T22:12:54.096Z,-0.85
2019-01-18T22:15:55.530Z,-0.90
2019-01-18T22:18:27.328Z,-0.89
2019-01-18T22:21:16.581Z,-0.90
2019-01-18T22:23:57.028Z,-0.90
2019-01-18T22:26:40.512Z,-0.90
2019-01-18T22:29:31.755Z,-0.90
2019-01-18T22:32:18.649Z,-0.92
2019-01-18T22:35:05.282Z,-0.94
2019-01-18T22:37:39.316Z,-0.94
2019-01-18T22:40:44.307Z,-0.83
2019-01-18T22:43:25.079Z,-0.83
2019-01-18T22:46:02.018Z,-0.73
2019-01-18T22:48:39.766Z,-0.81
2019-01-18T22:51:11.217Z,-0.89
2019-01-18T22:53:51.629Z,-0.96
2019-01-18T22:56:40.627Z,-1.02
2019-01-18T22:59:42.619Z,-1.00
2019-01-18T23:02:25.826Z,-0.98
2019-01-18T23:05:00.240Z,-1.08
2019-01-18T23:07:40.707Z,-1.10
2019-01-18T23:10:20.760Z,-1.03
2019-01-18T23:13:07.466Z,-1.06
2019-01-18T23:16:04.831Z,-1.07
2019-01-18T23:18:39.001Z,-1.08
2019-01-18T23:21:19.299Z,-1.07
2019-01-18T23:23:53.484Z,-1.05
2019-01-18T23:26:41.961Z,-1.03
2019-01-18T23:29:31.280Z,-1.03
2019-01-18T23:32:25.824Z,-1.08
2019-01-18T23:35:02.853Z,-1.03
2019-01-18T23:37:36.489Z,-0.98
2019-01-18T23:40:27.410Z,-1.09
2019-01-18T23:43:07.758Z,-1.11
2019-01-18T23:45:42.189Z,-1.06
2019-01-18T23:48:25.658Z,-1.12
2019-01-18T23:51:02.859Z,-1.16
2019-01-18T23:53:34.321Z,-1.23
2019-01-18T23:56:17.881Z,-1.27
2019-01-18T23:58:49.352Z,-1.29
